Clare, Michigan
Current Conditions -  °F | °C
As of 4:38 AM on Monday 20 Oct 2014 (Local Time) from KMOP Reporting Station
Overcast Overcast  
Wind Chill: 46°   Ceiling: 5500
Heat Index: 48°   Visibility: 10mi
Dew Point: 44°   Wind: 5mph
Humidity: 86%   Direction: 190°S
Pressure: 29.8"   Gusts: NA
Location:  43.82°N, 84.77°W
Report Text: KMOP 200838Z AUTO 19004KT 10SM SCT047 OVC055 09/07 A2980 RMK AO2 T00880066
Loading
Personal Weather Stations






























Interactive Weather Map
Tropical Storm Tracking
New forecast layout! Learn more

10-Day Weather Forecast

Advertisements
Track Severe Weather on mobile